Time;durP1;ratioP1;P1;durP2;ratioP2;P2;SDS_P1;SDS_P2;PMS_P1;PMS_P2;Temp;Humidity;BMP_temperature;BMP_pressure;BME280_temperature;BME280_humidity;BME280_pressure;Samples;Min_cycle;Max_cycle;Signal;HPM_P1;HPM_P2
2021/10/05 14:25:41;;;;;;;5.65;4.20;;;;;;;25.84;36.75;102905.59;5088843;27;20377;-51
2021/10/05 14:28:08;;;;;;;4.50;3.60;;;;;;;25.98;36.75;102904.75;5088806;28;20051;-56
2021/10/05 14:30:36;;;;;;;5.13;3.45;;;;;;;25.77;36.25;102890.56;5088317;28;20411;-50
2021/10/05 14:36:46;;;;;;;5.38;4.25;;;;;;;25.21;38.25;102915.69;5127303;27;20391;-43
2021/10/05 14:39:13;;;;;;;5.93;4.22;;;;;;;24.94;38.62;102910.00;5128183;28;20046;-43
2021/10/05 14:41:41;;;;;;;4.88;3.95;;;;;;;24.87;38.68;102924.06;5128483;28;20048;-45
2021/10/05 14:44:09;;;;;;;5.40;4.10;;;;;;;24.83;38.56;102923.34;5124991;28;20051;-45
2021/10/05 14:46:36;;;;;;;5.47;3.60;;;;;;;24.81;38.72;102927.13;5125347;28;20365;-44
2021/10/05 14:49:03;;;;;;;4.82;3.92;;;;;;;24.80;38.77;102931.69;5123503;28;20055;-46
2021/10/05 14:51:31;;;;;;;5.05;4.00;;;;;;;24.79;38.80;102929.94;5128123;28;20054;-46
2021/10/05 14:54:00;;;;;;;5.97;4.53;;;;;;;24.78;38.40;102930.91;5127427;28;20396;-45
2021/10/05 14:56:27;;;;;;;5.35;4.40;;;;;;;24.79;38.50;102929.06;5126402;28;20046;-44
2021/10/05 14:58:55;;;;;;;5.60;4.55;;;;;;;24.83;38.91;102933.38;5127743;28;20054;-46
2021/10/05 16:05:04;;;;;;;;;;;;;;;23.49;33.20;102858.19;4991976;28;21406;-72
2021/10/05 16:07:32;;;;;;;6.35;4.35;;;;;;;22.85;33.80;102789.94;4987548;28;19930;-74
2021/10/05 16:09:59;;;;;;;5.97;4.22;;;;;;;23.19;33.72;102849.78;4994201;28;20054;-73
2021/10/05 16:12:27;;;;;;;5.53;3.92;;;;;;;23.31;33.40;102849.16;4985390;28;20055;-73
2021/10/05 16:14:55;;;;;;;6.88;4.20;;;;;;;23.13;33.17;102852.81;4988839;28;20738;-73
2021/10/05 16:17:22;;;;;;;6.60;3.90;;;;;;;23.13;33.29;102855.53;4991775;28;20285;-73
2021/10/05 16:19:50;;;;;;;5.22;3.67;;;;;;;22.77;33.22;102834.69;4997673;28;20066;-73
2021/10/05 16:22:20;;;;;;;5.05;3.88;;;;;;;23.06;33.55;102860.38;4987960;28;20476;-72
2021/10/05 16:24:47;;;;;;;6.22;3.80;;;;;;;23.17;33.33;102863.47;5018703;28;20042;-74
2021/10/05 16:27:17;;;;;;;5.63;3.88;;;;;;;23.18;33.05;102867.03;4990960;28;20066;-73
2021/10/05 16:29:45;;;;;;;6.35;4.10;;;;;;;23.14;32.76;102852.75;4984892;28;20438;-74
2021/10/05 16:32:12;;;;;;;5.00;3.88;;;;;;;23.00;33.35;102858.88;4988072;28;20437;-73
2021/10/05 16:34:42;;;;;;;5.57;4.25;;;;;;;23.08;33.39;102850.34;5019331;28;20057;-71
2021/10/05 16:37:09;;;;;;;5.45;3.55;;;;;;;23.50;32.63;102849.94;4987033;28;20061;-72
2021/10/05 16:39:38;;;;;;;5.72;3.42;;;;;;;23.74;32.22;102865.94;4995024;28;20050;-72
2021/10/05 16:42:06;;;;;;;4.85;3.45;;;;;;;23.87;32.16;102867.03;4984681;28;20491;-73
2021/10/05 16:44:34;;;;;;;4.82;3.45;;;;;;;23.89;31.66;102858.78;4987314;28;20054;-72
2021/10/05 16:47:03;;;;;;;4.55;3.40;;;;;;;23.79;31.94;102864.72;4985953;28;20249;-71
2021/10/05 16:49:31;;;;;;;5.80;4.32;;;;;;;23.81;31.95;102868.25;4989130;28;20046;-71
2021/10/05 16:51:59;;;;;;;4.15;3.55;;;;;;;23.72;32.32;102862.41;4984523;28;20069;-73
2021/10/05 16:54:27;;;;;;;5.32;3.58;;;;;;;23.73;31.91;102865.06;4979671;28;20317;-72
2021/10/05 16:56:56;;;;;;;6.20;3.78;;;;;;;23.69;32.34;102863.47;4967427;28;20058;-71
2021/10/05 16:59:23;;;;;;;4.43;3.70;;;;;;;23.86;31.68;102848.09;4983874;28;20057;-72
2021/10/05 17:01:52;;;;;;;5.63;3.58;;;;;;;23.71;32.13;102845.22;4984347;28;20081;-73
2021/10/05 17:04:19;;;;;;;3.97;2.97;;;;;;;23.78;31.87;102851.22;5001234;28;20042;-71
2021/10/05 17:06:48;;;;;;;6.50;3.85;;;;;;;23.84;31.92;102858.19;5007846;28;20057;-71
2021/10/05 17:09:16;;;;;;;4.60;3.17;;;;;;;23.72;32.14;102851.53;5010833;28;20053;-73
2021/10/05 17:11:44;;;;;;;5.45;3.78;;;;;;;23.68;32.27;102850.84;5010736;28;20058;-71
2021/10/05 17:14:14;;;;;;;4.30;3.30;;;;;;;23.71;32.43;102856.09;5005711;28;20085;-73
2021/10/05 17:16:42;;;;;;;4.85;3.75;;;;;;;23.75;32.39;102865.84;4993236;28;20153;-72
2021/10/05 17:19:10;;;;;;;3.72;3.08;;;;;;;23.57;32.31;102835.06;4998090;28;20046;-71
2021/10/05 17:21:37;;;;;;;3.58;3.08;;;;;;;23.62;32.11;102828.50;4997342;28;20050;-71
2021/10/05 17:24:05;;;;;;;4.70;3.13;;;;;;;23.55;32.33;102819.81;5004447;28;20514;-71
2021/10/05 17:26:34;;;;;;;5.55;3.65;;;;;;;23.72;32.22;102866.00;4980645;28;20061;-72
2021/10/05 17:29:04;;;;;;;4.75;3.03;;;;;;;23.66;32.32;102858.16;4995064;28;20345;-72
2021/10/05 17:31:34;;;;;;;4.82;3.55;;;;;;;23.67;32.53;102869.91;4997712;28;20065;-72
2021/10/05 17:34:03;;;;;;;4.97;4.00;;;;;;;23.59;32.32;102864.91;4992794;28;20061;-71
2021/10/05 17:36:31;;;;;;;5.05;3.70;;;;;;;23.46;32.67;102836.63;4995709;28;20822;-72
2021/10/05 17:38:59;;;;;;;4.57;2.78;;;;;;;23.66;32.27;102858.16;5002879;28;20042;-71
2021/10/05 17:41:26;;;;;;;4.60;3.58;;;;;;;23.70;32.43;102848.06;4999253;28;21699;-71
2021/10/05 17:43:54;;;;;;;4.78;3.33;;;;;;;23.41;32.60;102817.84;5001972;28;20455;-71
2021/10/05 17:46:24;;;;;;;6.10;3.60;;;;;;;23.64;32.27;102848.34;5004282;28;20062;-73
2021/10/05 17:48:54;;;;;;;5.60;3.28;;;;;;;23.12;32.52;102766.91;5000591;28;20058;-70
2021/10/05 17:51:21;;;;;;;4.13;3.00;;;;;;;23.29;32.25;102791.34;5007675;28;20425;-71
2021/10/05 17:53:49;;;;;;;4.70;3.20;;;;;;;23.53;32.63;102840.75;5001780;28;20057;-72
2021/10/05 17:56:17;;;;;;;4.97;3.00;;;;;;;23.58;32.64;102849.53;4997111;28;20406;-72
2021/10/05 17:58:45;;;;;;;4.60;3.13;;;;;;;23.68;32.51;102848.13;4999597;28;20053;-72
2021/10/05 18:01:13;;;;;;;4.53;3.30;;;;;;;23.62;32.61;102851.13;4997491;28;20050;-71
2021/10/05 18:03:40;;;;;;;5.68;3.72;;;;;;;23.47;32.50;102828.38;5001487;28;20437;-71
2021/10/05 18:06:10;;;;;;;4.53;3.15;;;;;;;23.41;32.92;102827.81;4995680;28;20066;-72
2021/10/05 18:08:38;;;;;;;4.10;2.55;;;;;;;23.48;32.54;102823.81;4999991;28;20430;-72
2021/10/05 18:11:05;;;;;;;5.85;3.40;;;;;;;23.53;32.64;102828.06;4994135;28;20600;-72
2021/10/05 18:13:33;;;;;;;4.38;3.35;;;;;;;23.50;32.53;102830.94;4995169;28;20085;-71
2021/10/05 18:16:00;;;;;;;4.25;2.90;;;;;;;23.50;32.56;102832.78;5006537;28;20050;-72
2021/10/05 18:18:28;;;;;;;4.68;3.13;;;;;;;23.45;32.48;102811.28;5008019;28;20057;-73
2021/10/05 18:20:56;;;;;;;5.22;3.53;;;;;;;23.54;32.64;102832.50;5003281;28;20062;-72
2021/10/05 18:23:25;;;;;;;4.15;3.20;;;;;;;23.46;32.90;102831.19;5006914;28;20068;-72
2021/10/05 18:25:53;;;;;;;4.63;3.10;;;;;;;23.48;32.42;102827.44;4979055;28;20541;-72
2021/10/05 18:28:21;;;;;;;4.60;3.35;;;;;;;23.47;32.56;102832.94;4998358;28;20058;-72
2021/10/05 18:30:48;;;;;;;4.13;3.08;;;;;;;23.52;32.73;102841.72;5003118;28;20404;-72
2021/10/05 18:33:18;;;;;;;4.07;2.53;;;;;;;23.44;32.69;102843.94;5002232;28;20426;-72
2021/10/05 18:35:45;;;;;;;4.78;3.08;;;;;;;23.42;32.98;102854.03;5005800;28;20057;-72
2021/10/05 18:38:13;;;;;;;3.95;2.60;;;;;;;23.07;32.62;102778.88;4999276;28;20553;-72
2021/10/05 18:40:42;;;;;;;3.28;2.50;;;;;;;23.33;32.75;102826.38;5001056;28;20065;-72
2021/10/05 18:43:10;;;;;;;4.03;2.80;;;;;;;23.38;32.72;102837.03;4997273;28;20057;-72
2021/10/05 18:45:37;;;;;;;3.83;2.38;;;;;;;23.42;32.63;102841.34;5009992;28;20049;-72
2021/10/05 18:48:06;;;;;;;5.43;3.15;;;;;;;23.26;32.84;102805.06;4987496;28;20061;-71
2021/10/05 18:50:33;;;;;;;3.58;2.80;;;;;;;23.49;32.79;102840.03;5004282;28;20073;-72
2021/10/05 18:53:01;;;;;;;4.75;2.67;;;;;;;23.33;32.78;102847.22;4993723;28;20084;-72
2021/10/05 18:55:30;;;;;;;4.88;3.10;;;;;;;23.31;33.03;102852.75;5004779;28;20410;-71
2021/10/05 18:57:59;;;;;;;4.03;3.10;;;;;;;23.31;32.81;102854.59;5006490;28;20065;-71
2021/10/05 19:00:27;;;;;;;3.67;2.90;;;;;;;23.29;33.03;102846.50;5001860;28;20478;-73
2021/10/05 19:02:54;;;;;;;5.38;2.90;;;;;;;23.33;32.76;102853.53;5009847;28;20071;-73
2021/10/05 19:05:22;;;;;;;3.83;2.80;;;;;;;23.48;32.54;102859.13;5004597;28;20049;-73
2021/10/05 19:07:51;;;;;;;3.95;3.13;;;;;;;23.25;32.96;102861.22;4995677;28;20069;-72
2021/10/05 19:10:18;;;;;;;4.03;2.67;;;;;;;23.28;33.02;102858.34;5004676;28;20058;-73
2021/10/05 19:12:53;;;;;;;3.88;2.80;;;;;;;23.42;32.89;102868.50;5009883;28;20053;-73
2021/10/05 19:15:25;;;;;;;3.08;2.45;;;;;;;23.37;32.67;102864.25;4999721;28;20056;-73
2021/10/05 19:17:53;;;;;;;3.60;2.63;;;;;;;23.34;32.63;102852.59;4996951;28;20060;-73
2021/10/05 19:20:23;;;;;;;3.35;2.58;;;;;;;23.25;32.97;102847.63;4993884;28;20490;-72
2021/10/05 19:22:51;;;;;;;3.28;2.40;;;;;;;23.29;32.98;102864.66;5004590;28;20072;-73
2021/10/05 19:25:19;;;;;;;4.65;3.40;;;;;;;23.11;32.83;102828.47;5006869;28;20065;-73
2021/10/05 19:27:46;;;;;;;3.50;2.40;;;;;;;23.35;33.00;102850.75;5002184;28;20545;-74
2021/10/05 19:30:15;;;;;;;4.97;3.20;;;;;;;22.95;32.90;102806.66;5005063;28;20509;-72
2021/10/05 19:32:48;;;;;;;3.78;2.80;;;;;;;23.30;32.77;102829.25;4996012;28;20053;-71
2021/10/05 19:35:16;;;;;;;3.75;2.50;;;;;;;23.43;32.57;102858.50;4992751;28;20439;-72
2021/10/05 19:37:43;;;;;;;3.70;2.70;;;;;;;23.30;32.63;102855.53;4989651;28;20061;-72
2021/10/05 19:40:12;;;;;;;4.03;2.50;;;;;;;23.38;32.74;102857.84;5007844;28;20410;-71
2021/10/05 19:42:40;;;;;;;3.22;2.47;;;;;;;22.90;32.72;102784.28;5007956;28;20120;-71
2021/10/05 19:45:09;;;;;;;3.33;2.50;;;;;;;23.20;32.52;102827.09;4989060;28;20053;-72
2021/10/05 19:47:36;;;;;;;5.32;2.67;;;;;;;23.21;32.84;102829.75;4992376;28;20057;-72
2021/10/05 19:50:07;;;;;;;3.83;2.60;;;;;;;22.61;32.56;102731.50;5005887;28;20057;-71
2021/10/05 19:52:35;;;;;;;3.28;2.53;;;;;;;22.95;32.85;102816.63;4994848;28;20747;-73
2021/10/05 19:55:03;;;;;;;4.75;2.40;;;;;;;23.31;32.56;102857.31;5000946;28;20416;-72
2021/10/05 19:57:31;;;;;;;2.75;2.30;;;;;;;23.26;32.68;102862.09;5007044;28;20064;-72
2021/10/05 19:59:58;;;;;;;3.40;2.55;;;;;;;23.27;32.63;102845.72;5003320;28;20058;-71
2021/10/05 20:02:26;;;;;;;4.13;2.50;;;;;;;23.04;33.02;102843.31;5009027;28;20062;-71
2021/10/05 20:04:54;;;;;;;4.28;2.85;;;;;;;23.23;32.90;102860.41;5003123;28;20450;-72
2021/10/05 20:07:23;;;;;;;3.72;2.33;;;;;;;23.27;32.74;102859.31;5007117;28;20054;-71
2021/10/05 20:09:51;;;;;;;4.32;2.35;;;;;;;23.23;32.67;102854.97;5007972;28;20065;-72
2021/10/05 20:12:19;;;;;;;4.00;2.65;;;;;;;23.26;32.45;102853.94;5003405;28;20061;-72
2021/10/05 20:14:46;;;;;;;3.58;2.58;;;;;;;23.28;32.82;102862.91;5009180;28;20097;-71
2021/10/05 20:17:14;;;;;;;3.45;2.60;;;;;;;23.30;32.68;102861.84;5009346;28;20081;-72
2021/10/05 20:19:41;;;;;;;3.38;2.75;;;;;;;23.25;32.86;102876.63;5005970;28;20077;-71
2021/10/05 20:22:09;;;;;;;3.33;2.55;;;;;;;23.21;32.73;102851.47;5007989;28;20434;-72
2021/10/05 20:24:38;;;;;;;3.65;2.55;;;;;;;23.28;32.62;102852.91;4989953;28;20062;-72
2021/10/05 20:27:06;;;;;;;3.53;2.80;;;;;;;23.42;32.57;102863.06;5005809;28;20621;-72
2021/10/05 20:29:34;;;;;;;2.88;2.15;;;;;;;23.29;32.50;102867.38;5002479;28;20499;-71
2021/10/05 20:32:02;;;;;;;2.97;2.35;;;;;;;23.18;32.68;102865.22;4988344;28;20427;-72
2021/10/05 20:34:30;;;;;;;3.92;2.70;;;;;;;23.10;32.64;102859.31;5003717;28;20422;-71
2021/10/05 20:36:58;;;;;;;3.95;2.67;;;;;;;23.27;32.41;102859.31;5006433;28;20054;-72
2021/10/05 20:39:25;;;;;;;2.60;2.15;;;;;;;23.21;32.75;102865.06;5002428;28;20058;-72
2021/10/05 20:41:54;;;;;;;4.93;2.95;;;;;;;23.27;32.63;102863.84;5006372;28;20062;-71
2021/10/05 20:44:22;;;;;;;3.03;1.98;;;;;;;23.27;32.50;102869.28;5006744;28;20062;-72
2021/10/05 20:46:50;;;;;;;3.85;2.63;;;;;;;23.28;32.47;102866.50;5004028;28;20049;-72
2021/10/05 20:49:17;;;;;;;3.55;2.40;;;;;;;22.94;32.52;102825.75;4999088;28;20057;-72
2021/10/05 20:51:45;;;;;;;3.25;2.25;;;;;;;23.16;32.56;102853.53;5003281;28;20054;-72
2021/10/05 20:54:13;;;;;;;3.80;2.65;;;;;;;23.25;32.72;102863.94;4998051;28;20053;-72
2021/10/05 20:56:41;;;;;;;3.55;2.42;;;;;;;23.30;32.58;102863.69;5000733;28;20047;-73
2021/10/05 20:59:09;;;;;;;2.70;1.92;;;;;;;23.26;32.62;102864.81;5003528;28;20521;-71
2021/10/05 21:01:37;;;;;;;3.78;2.70;;;;;;;23.02;32.41;102831.66;5003743;28;20096;-70
2021/10/05 21:04:05;;;;;;;3.47;2.50;;;;;;;23.13;32.76;102864.56;5010270;28;20046;-71
2021/10/05 21:06:33;;;;;;;3.50;2.30;;;;;;;23.20;32.78;102874.16;5010846;28;20061;-71
2021/10/05 21:09:00;;;;;;;3.30;2.30;;;;;;;23.28;32.36;102879.19;5012450;28;20434;-73
2021/10/05 21:11:28;;;;;;;3.47;2.50;;;;;;;23.33;32.52;102877.09;5010095;28;20433;-72
2021/10/05 21:13:56;;;;;;;2.58;2.10;;;;;;;23.05;32.39;102836.91;5003924;28;20401;-71
2021/10/05 21:16:25;;;;;;;3.92;2.50;;;;;;;23.24;32.42;102883.91;5002825;28;20149;-71
2021/10/05 21:18:53;;;;;;;2.60;2.10;;;;;;;23.31;32.49;102879.91;5005132;28;20080;-73
2021/10/05 21:21:20;;;;;;;3.50;2.45;;;;;;;23.26;32.56;102883.81;5012128;28;20049;-71
2021/10/05 21:23:50;;;;;;;2.92;2.10;;;;;;;23.24;32.58;102883.91;5012757;28;20057;-72
2021/10/05 21:26:18;;;;;;;3.13;2.20;;;;;;;23.14;32.58;102866.31;5011676;28;20073;-71
2021/10/05 21:28:45;;;;;;;2.95;2.00;;;;;;;23.08;32.72;102886.50;5008436;28;20046;-72
2021/10/05 21:31:13;;;;;;;3.05;2.40;;;;;;;23.27;32.32;102885.56;5002093;28;20050;-72
2021/10/05 21:33:42;;;;;;;3.72;2.85;;;;;;;23.27;32.28;102894.63;5008698;28;20530;-70
2021/10/05 21:36:10;;;;;;;3.40;2.10;;;;;;;23.28;32.42;102893.66;4997572;28;20537;-71
2021/10/05 21:38:37;;;;;;;2.60;2.10;;;;;;;22.94;32.41;102837.47;4994431;28;20050;-72
2021/10/05 21:41:05;;;;;;;3.22;2.10;;;;;;;23.29;32.47;102898.13;4993622;28;20065;-71
2021/10/05 21:43:33;;;;;;;2.88;2.30;;;;;;;23.32;32.16;102903.38;5003767;28;20055;-72
2021/10/05 21:46:00;;;;;;;3.17;2.38;;;;;;;23.29;32.55;102906.25;4994508;28;20061;-72
2021/10/05 21:48:28;;;;;;;3.15;2.22;;;;;;;23.28;32.23;102898.22;5005375;28;20054;-71
2021/10/05 21:50:59;;;;;;;3.70;2.40;;;;;;;23.12;32.49;102887.22;4996199;28;20053;-72
2021/10/05 21:53:26;;;;;;;3.47;2.15;;;;;;;23.31;32.42;102903.47;4999483;28;20062;-72
2021/10/05 21:55:54;;;;;;;3.10;2.08;;;;;;;23.29;32.29;102908.97;5012909;28;20058;-73
2021/10/05 21:58:22;;;;;;;3.83;2.55;;;;;;;23.20;32.47;102905.84;5010264;28;20049;-73
2021/10/05 22:00:49;;;;;;;3.25;2.25;;;;;;;23.26;32.30;102910.97;5011348;28;20465;-72
2021/10/05 22:03:17;;;;;;;3.25;2.08;;;;;;;23.16;32.50;102906.97;5007803;28;20058;-72
2021/10/05 22:05:44;;;;;;;3.50;2.33;;;;;;;23.15;32.46;102889.78;5004559;28;20058;-72
2021/10/05 22:08:14;;;;;;;2.75;2.03;;;;;;;23.09;32.42;102876.53;5011335;28;20042;-72
2021/10/05 22:10:42;;;;;;;4.18;2.30;;;;;;;23.28;32.20;102912.66;5012223;28;20045;-71
2021/10/05 22:13:09;;;;;;;3.38;2.03;;;;;;;22.79;32.12;102843.66;4999187;28;20078;-72
2021/10/05 22:15:39;;;;;;;2.90;2.10;;;;;;;23.20;32.35;102911.28;4991917;28;20061;-72
2021/10/05 22:18:07;;;;;;;2.58;1.98;;;;;;;23.24;32.39;102916.50;4991254;28;20065;-72
2021/10/05 22:20:35;;;;;;;3.25;2.40;;;;;;;23.10;32.45;102898.19;4990907;28;20426;-72
2021/10/05 22:23:03;;;;;;;3.55;2.20;;;;;;;23.31;32.08;102934.22;4990862;28;20422;-71
2021/10/05 22:25:32;;;;;;;2.28;1.83;;;;;;;23.22;32.12;102934.69;5002238;28;20058;-72
2021/10/05 22:28:00;;;;;;;3.58;2.17;;;;;;;23.18;32.46;102932.22;5007303;28;20080;-72
2021/10/05 22:30:29;;;;;;;2.38;1.88;;;;;;;23.15;32.59;102946.81;5001629;28;20165;-72
2021/10/05 22:32:57;;;;;;;2.50;2.03;;;;;;;22.67;32.73;102866.81;5004076;28;20298;-72
2021/10/05 22:35:24;;;;;;;2.83;2.03;;;;;;;22.97;32.11;102888.88;5001602;28;20046;-72
2021/10/05 22:37:54;;;;;;;2.75;1.90;;;;;;;23.22;32.46;102941.94;5012709;28;20065;-72
2021/10/05 22:40:22;;;;;;;2.72;1.85;;;;;;;23.06;32.10;102922.81;5017735;28;20426;-71
2021/10/05 22:42:51;;;;;;;2.70;2.00;;;;;;;23.10;32.68;102946.19;5002831;28;20062;-72
2021/10/05 22:45:21;;;;;;;3.00;2.05;;;;;;;22.90;31.99;102908.25;4991117;28;20065;-72
2021/10/05 22:47:48;;;;;;;3.17;2.10;;;;;;;23.05;32.39;102934.66;4992684;28;20661;-72
2021/10/05 22:50:16;;;;;;;2.88;2.10;;;;;;;22.56;32.18;102832.09;5011724;28;20053;-72
2021/10/05 22:52:44;;;;;;;3.10;2.20;;;;;;;23.25;32.10;102956.25;5011860;28;20053;-72
2021/10/05 22:55:12;;;;;;;2.80;2.08;;;;;;;23.15;32.37;102943.22;5010422;28;20053;-72
2021/10/05 22:57:39;;;;;;;3.47;2.35;;;;;;;23.09;32.21;102938.97;5012104;28;20058;-71
2021/10/05 23:00:10;;;;;;;2.95;1.65;;;;;;;23.23;32.13;102946.41;5012021;28;20077;-72
2021/10/05 23:02:38;;;;;;;2.90;2.05;;;;;;;23.16;32.20;102951.28;5005443;28;20053;-71
2021/10/05 23:05:06;;;;;;;2.42;1.90;;;;;;;23.17;32.35;102944.91;4991827;28;20058;-71
2021/10/05 23:07:34;;;;;;;3.63;2.20;;;;;;;23.32;31.97;102955.00;4994736;28;20050;-71
2021/10/05 23:10:01;;;;;;;2.92;2.03;;;;;;;22.93;32.43;102913.56;5010599;28;20061;-71
2021/10/05 23:12:29;;;;;;;3.50;2.00;;;;;;;23.08;32.45;102943.50;5001205;28;20061;-71
2021/10/05 23:14:57;;;;;;;2.55;1.80;;;;;;;23.21;32.34;102953.78;4992045;28;20137;-71
2021/10/05 23:17:26;;;;;;;2.80;2.00;;;;;;;23.24;32.40;102959.06;4994065;28;20058;-72
2021/10/05 23:19:54;;;;;;;3.17;2.15;;;;;;;23.15;32.23;102960.38;5012179;28;20069;-73
2021/10/05 23:22:21;;;;;;;2.58;1.73;;;;;;;23.22;32.00;102960.97;5011094;28;20056;-71
2021/10/05 23:24:49;;;;;;;2.67;2.00;;;;;;;23.14;32.38;102949.63;5011023;28;20064;-73
2021/10/05 23:27:17;;;;;;;2.75;1.92;;;;;;;23.19;32.17;102956.56;5011535;28;20057;-72
2021/10/05 23:29:45;;;;;;;3.13;2.10;;;;;;;23.31;31.89;102960.50;5000314;28;20062;-71
2021/10/05 23:32:13;;;;;;;2.97;2.15;;;;;;;23.20;32.38;102949.28;5006798;28;20081;-71
2021/10/05 23:34:42;;;;;;;2.67;1.95;;;;;;;22.89;32.20;102899.22;4973313;28;20058;-72
2021/10/05 23:37:10;;;;;;;3.20;2.20;;;;;;;23.20;32.18;102946.56;4988006;28;20054;-72
2021/10/05 23:39:37;;;;;;;3.17;1.80;;;;;;;23.10;32.43;102955.19;4992348;28;20567;-72
2021/10/05 23:42:05;;;;;;;2.03;1.70;;;;;;;23.21;32.06;102951.94;4999793;28;20061;-72
2021/10/05 23:44:34;;;;;;;3.25;2.00;;;;;;;23.23;32.02;102954.56;5003066;28;20434;-72
2021/10/05 23:47:02;;;;;;;2.72;1.80;;;;;;;23.12;32.38;102955.09;5004205;28;20427;-72
2021/10/05 23:49:29;;;;;;;2.55;1.75;;;;;;;23.16;32.25;102932.25;5009951;28;20542;-71
2021/10/05 23:51:59;;;;;;;2.25;1.55;;;;;;;22.80;31.94;102878.84;5010624;28;20054;-72
2021/10/05 23:54:26;;;;;;;3.75;1.83;;;;;;;23.20;32.33;102947.47;5009084;28;20053;-73
2021/10/05 23:56:54;;;;;;;3.70;2.25;;;;;;;23.22;32.14;102948.25;4998269;28;20058;-71
2021/10/05 23:59:22;;;;;;;4.28;2.30;;;;;;;23.12;32.16;102948.81;4991681;28;20541;-72
